createdAt,value
2018-03-31T00:00:05.153Z,12.13
2018-03-31T00:00:36.542Z,14.20
2018-03-31T00:01:07.973Z,13.30
2018-03-31T00:01:39.348Z,14.60
2018-03-31T00:02:10.714Z,13.27
2018-03-31T00:02:42.080Z,13.98
2018-03-31T00:03:13.444Z,12.85
2018-03-31T00:03:44.840Z,13.05
2018-03-31T00:04:16.209Z,12.85
2018-03-31T00:04:47.605Z,15.63
2018-03-31T00:05:18.989Z,11.77
2018-03-31T00:05:50.364Z,13.30
2018-03-31T00:06:21.749Z,13.90
2018-03-31T00:06:53.101Z,13.62
2018-03-31T00:07:24.416Z,14.25
2018-03-31T00:07:55.766Z,13.02
2018-03-31T00:08:27.130Z,16.33
2018-03-31T00:08:58.510Z,14.95
2018-03-31T00:09:29.869Z,14.60
2018-03-31T00:10:01.261Z,13.13
2018-03-31T00:10:32.707Z,13.80
2018-03-31T00:11:04.046Z,15.00
2018-03-31T00:11:35.408Z,13.13
2018-03-31T00:12:06.803Z,13.25
2018-03-31T00:12:38.154Z,13.62
2018-03-31T00:13:09.564Z,14.18
2018-03-31T00:13:40.919Z,15.85
2018-03-31T00:14:18.536Z,13.35
2018-03-31T00:14:49.913Z,13.43
2018-03-31T00:15:21.295Z,15.68
2018-03-31T00:15:52.672Z,13.93
2018-03-31T00:16:24.045Z,14.35
2018-03-31T00:16:55.420Z,13.73
2018-03-31T00:17:26.832Z,14.00
2018-03-31T00:17:58.257Z,13.75
2018-03-31T00:18:29.643Z,15.50
2018-03-31T00:19:01.032Z,14.43
2018-03-31T00:19:32.454Z,14.25
2018-03-31T00:20:03.829Z,14.52
2018-03-31T00:20:35.197Z,14.85
2018-03-31T00:21:06.592Z,15.40
2018-03-31T00:21:38.000Z,15.40
2018-03-31T00:22:09.456Z,14.27
2018-03-31T00:22:41.857Z,16.15
2018-03-31T00:23:13.262Z,15.20
2018-03-31T00:23:44.638Z,14.82
2018-03-31T00:24:16.030Z,15.13
2018-03-31T00:24:47.421Z,15.05
2018-03-31T00:25:18.804Z,15.40
2018-03-31T00:25:50.161Z,14.18
2018-03-31T00:26:21.576Z,13.30
2018-03-31T00:26:52.952Z,15.40
2018-03-31T00:27:24.352Z,14.65
2018-03-31T00:27:55.713Z,15.88
2018-03-31T00:28:27.081Z,15.20
2018-03-31T00:28:58.459Z,15.60
2018-03-31T00:29:29.860Z,15.45
2018-03-31T00:30:01.235Z,15.90
2018-03-31T00:30:32.601Z,14.45
2018-03-31T00:31:03.984Z,13.98
2018-03-31T00:31:35.347Z,14.13
2018-03-31T00:32:06.719Z,15.43
2018-03-31T00:32:38.108Z,13.80
2018-03-31T00:33:09.504Z,15.60
2018-03-31T00:33:40.857Z,16.02
2018-03-31T00:34:12.251Z,15.52
2018-03-31T00:34:43.624Z,15.02
2018-03-31T00:35:14.998Z,14.60
2018-03-31T00:35:46.369Z,15.45
2018-03-31T00:36:17.776Z,16.48
2018-03-31T00:36:49.161Z,16.17
2018-03-31T00:37:20.545Z,14.02
2018-03-31T00:37:51.920Z,14.30
2018-03-31T00:38:23.334Z,14.80
2018-03-31T00:38:54.819Z,13.82
2018-03-31T00:39:26.200Z,13.90
2018-03-31T00:39:57.566Z,14.68
2018-03-31T00:40:28.920Z,14.73
2018-03-31T00:41:00.310Z,14.00
2018-03-31T00:41:31.688Z,15.43
2018-03-31T00:42:03.093Z,14.57
2018-03-31T00:42:34.492Z,15.98
2018-03-31T00:43:05.876Z,15.38
2018-03-31T00:43:37.271Z,16.23
2018-03-31T00:44:08.671Z,16.12
2018-03-31T00:44:40.051Z,14.95
2018-03-31T00:45:11.459Z,16.25
2018-03-31T00:45:42.851Z,14.75
2018-03-31T00:46:14.228Z,16.65
2018-03-31T00:46:45.611Z,16.70
2018-03-31T00:47:16.989Z,15.13
2018-03-31T00:47:48.340Z,15.73
2018-03-31T00:48:19.708Z,16.48
2018-03-31T00:48:51.103Z,16.23
2018-03-31T00:49:22.493Z,17.30
2018-03-31T00:49:53.892Z,15.38
2018-03-31T00:50:25.285Z,16.33
2018-03-31T00:50:56.672Z,16.55
2018-03-31T00:51:28.055Z,16.40
2018-03-31T00:51:59.420Z,17.35
2018-03-31T00:52:30.801Z,17.45
2018-03-31T00:53:02.190Z,15.55
2018-03-31T00:53:33.577Z,16.70
2018-03-31T00:54:04.958Z,17.20
2018-03-31T00:54:36.346Z,16.12
2018-03-31T00:55:07.706Z,17.45
2018-03-31T00:55:39.079Z,16.85
2018-03-31T00:56:10.464Z,16.95
2018-03-31T00:56:41.846Z,16.55
2018-03-31T00:57:13.242Z,15.80
2018-03-31T00:57:44.606Z,16.95
2018-03-31T00:58:16.002Z,20.25
2018-03-31T00:58:47.405Z,17.00
2018-03-31T00:59:18.762Z,18.30
2018-03-31T00:59:50.134Z,16.08
2018-03-31T01:00:21.530Z,16.17
2018-03-31T01:00:52.933Z,16.73
2018-03-31T01:01:24.299Z,17.42
2018-03-31T01:01:55.688Z,15.73
2018-03-31T01:02:27.104Z,17.37
2018-03-31T01:02:58.466Z,15.77
2018-03-31T01:03:29.842Z,17.23
2018-03-31T01:04:01.194Z,17.42
2018-03-31T01:04:32.551Z,17.37
2018-03-31T01:05:03.924Z,16.77
2018-03-31T01:05:35.302Z,16.67
2018-03-31T01:06:06.665Z,19.95
2018-03-31T01:06:38.042Z,20.35
2018-03-31T01:07:09.416Z,16.83
2018-03-31T01:07:40.785Z,18.02
2018-03-31T01:08:12.176Z,17.70
2018-03-31T01:08:43.528Z,16.85
2018-03-31T01:09:14.894Z,19.15
2018-03-31T01:09:46.263Z,19.10
2018-03-31T01:10:17.610Z,16.98
2018-03-31T01:10:48.977Z,15.98
2018-03-31T01:11:20.333Z,17.60
2018-03-31T01:11:51.731Z,18.30
2018-03-31T01:12:31.280Z,15.38
2018-03-31T01:13:02.671Z,17.23
2018-03-31T01:13:34.037Z,16.52
2018-03-31T01:14:05.439Z,15.50
2018-03-31T01:14:36.855Z,18.95
2018-03-31T01:15:08.260Z,18.52
2018-03-31T01:15:39.630Z,17.65
2018-03-31T01:16:11.010Z,19.92
2018-03-31T01:16:42.387Z,20.12
2018-03-31T01:17:13.760Z,17.83
2018-03-31T01:17:45.145Z,17.30
2018-03-31T01:18:16.512Z,18.67
2018-03-31T01:18:47.894Z,21.12
2018-03-31T01:19:19.258Z,20.73
2018-03-31T01:19:50.648Z,20.35
2018-03-31T01:20:22.017Z,19.25
2018-03-31T01:20:53.382Z,20.17
2018-03-31T01:21:24.750Z,19.20
2018-03-31T01:21:56.127Z,20.60
2018-03-31T01:22:27.500Z,18.80
2018-03-31T01:22:58.887Z,18.75
2018-03-31T01:23:30.264Z,20.55
2018-03-31T01:24:01.647Z,20.83
2018-03-31T01:24:33.038Z,22.60
2018-03-31T01:25:04.410Z,22.35
2018-03-31T01:25:35.773Z,22.95
2018-03-31T01:26:07.156Z,22.37
2018-03-31T01:26:38.539Z,23.45
2018-03-31T01:27:09.915Z,22.08
2018-03-31T01:27:41.312Z,21.27
2018-03-31T01:28:12.699Z,21.80
2018-03-31T01:28:44.076Z,20.83
2018-03-31T01:29:15.504Z,22.65
2018-03-31T01:29:46.884Z,22.27
2018-03-31T01:30:18.274Z,22.83
2018-03-31T01:30:49.664Z,21.25
2018-03-31T01:31:21.052Z,21.75
2018-03-31T01:31:52.436Z,22.52
2018-03-31T01:32:23.825Z,21.95
2018-03-31T01:32:55.196Z,23.42
2018-03-31T01:33:26.578Z,22.90
2018-03-31T01:33:57.952Z,22.08
2018-03-31T01:34:29.349Z,22.65
2018-03-31T01:35:00.768Z,20.75
2018-03-31T01:35:32.152Z,20.95
2018-03-31T01:36:03.554Z,22.67
2018-03-31T01:36:34.935Z,21.90
2018-03-31T01:37:06.326Z,20.73
2018-03-31T01:37:37.704Z,20.70
2018-03-31T01:38:09.148Z,22.20
2018-03-31T01:38:40.520Z,20.25
2018-03-31T01:39:11.902Z,20.55
2018-03-31T01:39:43.318Z,21.37
2018-03-31T01:40:14.728Z,21.95
2018-03-31T01:40:46.129Z,21.10
2018-03-31T01:41:17.514Z,21.35
2018-03-31T01:41:48.936Z,19.50
2018-03-31T01:42:20.328Z,20.55
2018-03-31T01:42:51.707Z,19.83
2018-03-31T01:43:23.140Z,19.48
2018-03-31T01:43:54.519Z,22.35
2018-03-31T01:44:25.900Z,21.15
2018-03-31T01:44:57.269Z,20.40
2018-03-31T01:45:28.633Z,20.77
2018-03-31T01:46:00.017Z,20.15
2018-03-31T01:46:31.408Z,22.23
2018-03-31T01:47:02.777Z,20.95
2018-03-31T01:47:34.158Z,22.55
2018-03-31T01:48:05.536Z,19.80
2018-03-31T01:48:36.937Z,23.02
2018-03-31T01:49:08.314Z,21.25
2018-03-31T01:49:39.763Z,22.92
2018-03-31T01:50:11.158Z,23.20
2018-03-31T01:50:42.538Z,22.20
2018-03-31T01:51:13.916Z,22.20
2018-03-31T01:51:45.334Z,24.12
2018-03-31T01:52:16.721Z,22.37
2018-03-31T01:52:48.108Z,23.10
2018-03-31T01:53:19.532Z,24.50
2018-03-31T01:53:50.916Z,23.23
2018-03-31T01:54:22.358Z,25.37
2018-03-31T01:54:53.724Z,25.20
2018-03-31T01:55:25.115Z,26.10
2018-03-31T01:55:56.481Z,25.15
2018-03-31T01:56:27.870Z,26.27
2018-03-31T01:56:59.216Z,24.70
2018-03-31T01:57:30.606Z,25.88
2018-03-31T01:58:01.980Z,27.25
2018-03-31T01:58:33.408Z,30.80
2018-03-31T01:59:04.784Z,34.00
2018-03-31T01:59:36.183Z,29.55
2018-03-31T02:00:07.579Z,31.55
2018-03-31T02:00:38.986Z,32.08
2018-03-31T02:01:10.362Z,37.50
2018-03-31T02:01:41.736Z,35.85
2018-03-31T02:02:13.120Z,36.05
2018-03-31T02:02:44.529Z,38.90
2018-03-31T02:03:15.921Z,32.63
2018-03-31T02:03:47.334Z,35.88
2018-03-31T02:04:18.693Z,32.70
2018-03-31T02:04:50.080Z,32.35
2018-03-31T02:05:21.501Z,35.03
2018-03-31T02:05:52.891Z,33.30
2018-03-31T02:06:24.261Z,34.72
2018-03-31T02:06:55.668Z,31.55
2018-03-31T02:07:27.093Z,30.65
2018-03-31T02:07:58.470Z,27.75
2018-03-31T02:08:29.858Z,30.15
2018-03-31T02:09:01.230Z,28.62
2018-03-31T02:09:32.630Z,26.52
2018-03-31T02:10:04.017Z,28.30
2018-03-31T02:10:35.407Z,30.75
2018-03-31T02:11:06.795Z,30.88
2018-03-31T02:11:38.257Z,29.90
2018-03-31T02:12:09.638Z,28.25
2018-03-31T02:12:41.028Z,26.45
2018-03-31T02:13:12.404Z,27.83
2018-03-31T02:13:43.778Z,25.98
2018-03-31T02:14:15.180Z,26.00
2018-03-31T02:14:46.585Z,29.42
2018-03-31T02:15:17.956Z,26.50
2018-03-31T02:15:49.328Z,27.00
2018-03-31T02:16:20.689Z,25.35
2018-03-31T02:16:52.112Z,26.50
2018-03-31T02:17:23.510Z,26.00
2018-03-31T02:17:54.888Z,25.37
2018-03-31T02:18:26.291Z,24.90
2018-03-31T02:18:57.720Z,26.48
2018-03-31T02:19:29.094Z,27.17
2018-03-31T02:20:00.493Z,28.38
2018-03-31T02:20:31.868Z,27.10
2018-03-31T02:21:03.244Z,26.83
2018-03-31T02:21:34.606Z,24.45
2018-03-31T02:22:06.004Z,26.05
2018-03-31T02:22:37.393Z,26.90
2018-03-31T02:23:08.796Z,25.50
2018-03-31T02:23:40.188Z,26.95
2018-03-31T02:24:11.590Z,26.10
2018-03-31T02:24:42.998Z,25.30
2018-03-31T02:25:14.408Z,26.60
2018-03-31T02:25:45.838Z,24.58
2018-03-31T02:26:17.220Z,29.20
2018-03-31T02:26:48.606Z,25.42
2018-03-31T02:27:19.958Z,25.42
2018-03-31T02:27:51.334Z,25.02
2018-03-31T02:28:22.731Z,24.45
2018-03-31T02:28:54.146Z,26.70
2018-03-31T02:29:25.542Z,26.10
2018-03-31T02:29:56.924Z,25.95
2018-03-31T02:30:28.328Z,24.90
2018-03-31T02:30:59.720Z,25.52
2018-03-31T02:31:31.116Z,25.48
2018-03-31T02:32:02.581Z,25.42
2018-03-31T02:32:33.902Z,25.12
2018-03-31T02:33:05.303Z,24.60
2018-03-31T02:33:36.711Z,24.70
2018-03-31T02:34:08.102Z,24.27
2018-03-31T02:34:39.480Z,24.87
2018-03-31T02:35:10.862Z,25.62
2018-03-31T02:35:42.271Z,26.60
2018-03-31T02:36:13.668Z,26.42
2018-03-31T02:36:45.071Z,26.00
2018-03-31T02:37:16.502Z,27.15
2018-03-31T02:37:47.888Z,25.58
2018-03-31T02:38:19.264Z,27.45
2018-03-31T02:38:50.652Z,27.55
2018-03-31T02:39:22.017Z,26.40
2018-03-31T02:39:53.397Z,27.33
2018-03-31T02:40:24.784Z,24.75
2018-03-31T02:40:56.191Z,27.67
2018-03-31T02:41:27.579Z,25.23
2018-03-31T02:41:59.005Z,25.90
2018-03-31T02:42:30.383Z,23.60
2018-03-31T02:43:01.753Z,25.37
2018-03-31T02:43:33.125Z,27.23
2018-03-31T02:44:04.527Z,28.05
2018-03-31T02:44:35.900Z,25.58
2018-03-31T02:45:07.267Z,25.02
2018-03-31T02:45:38.651Z,26.05
2018-03-31T02:46:10.032Z,25.85
2018-03-31T02:46:41.485Z,28.70
2018-03-31T02:47:12.877Z,25.83
2018-03-31T02:47:44.310Z,27.40
2018-03-31T02:48:15.676Z,24.95
2018-03-31T02:48:47.036Z,24.77
2018-03-31T02:49:18.386Z,25.62
2018-03-31T02:49:49.795Z,26.67
2018-03-31T02:50:21.186Z,25.23
2018-03-31T02:50:52.560Z,24.15
2018-03-31T02:51:23.928Z,25.55
2018-03-31T02:51:55.279Z,26.10
2018-03-31T02:52:26.657Z,25.83
2018-03-31T02:52:58.014Z,28.17
2018-03-31T02:53:29.388Z,26.87
2018-03-31T02:54:00.777Z,24.60
2018-03-31T02:54:32.164Z,26.60
2018-03-31T02:55:03.582Z,25.50
2018-03-31T02:55:34.963Z,23.52
2018-03-31T02:56:06.341Z,25.45
2018-03-31T02:56:37.833Z,23.87
2018-03-31T02:57:09.241Z,25.23
2018-03-31T02:57:40.612Z,24.12
2018-03-31T02:58:11.973Z,29.90
2018-03-31T02:58:43.438Z,27.08
2018-03-31T02:59:14.805Z,25.85
2018-03-31T02:59:46.203Z,24.85
2018-03-31T03:00:17.579Z,26.33
2018-03-31T03:00:48.915Z,25.80
2018-03-31T03:01:20.242Z,27.45
2018-03-31T03:01:51.581Z,26.87
2018-03-31T03:02:22.915Z,27.60
2018-03-31T03:02:54.228Z,27.60
2018-03-31T03:03:25.549Z,28.27
2018-03-31T03:03:56.886Z,29.60
2018-03-31T03:04:28.219Z,29.60
2018-03-31T03:04:59.563Z,30.58
2018-03-31T03:05:30.972Z,32.75
2018-03-31T03:06:02.395Z,27.08
2018-03-31T03:06:33.754Z,30.12
2018-03-31T03:07:05.129Z,29.45
2018-03-31T03:07:36.481Z,28.33
2018-03-31T03:08:07.851Z,26.83
2018-03-31T03:08:39.245Z,28.77
2018-03-31T03:09:10.619Z,29.20
2018-03-31T03:09:42.000Z,29.17
2018-03-31T03:10:13.351Z,29.45
2018-03-31T03:10:44.749Z,29.37
2018-03-31T03:11:16.101Z,28.12
2018-03-31T03:11:47.484Z,26.42
2018-03-31T03:12:18.866Z,27.02
2018-03-31T03:12:50.197Z,28.25
2018-03-31T03:13:21.558Z,28.17
2018-03-31T03:13:52.836Z,28.42
2018-03-31T03:14:24.108Z,27.62
2018-03-31T03:14:55.390Z,27.42
2018-03-31T03:15:26.660Z,26.48
2018-03-31T03:15:57.973Z,26.08
2018-03-31T03:16:29.261Z,25.88
2018-03-31T03:17:00.548Z,27.48
2018-03-31T03:17:31.830Z,26.90
2018-03-31T03:18:03.108Z,26.17
2018-03-31T03:18:34.394Z,25.62
2018-03-31T03:19:05.676Z,26.42
2018-03-31T03:19:36.936Z,24.92
2018-03-31T03:20:08.213Z,23.87
2018-03-31T03:20:39.517Z,27.27
2018-03-31T03:21:10.786Z,26.30
2018-03-31T03:21:42.087Z,27.05
2018-03-31T03:22:13.369Z,24.87
2018-03-31T03:22:44.646Z,24.02
2018-03-31T03:23:15.923Z,27.17
2018-03-31T03:23:47.184Z,27.83
2018-03-31T03:24:18.444Z,26.67
2018-03-31T03:24:49.718Z,26.45
2018-03-31T03:25:20.998Z,27.65
2018-03-31T03:25:52.286Z,28.58
2018-03-31T03:26:23.554Z,30.85
2018-03-31T03:26:54.819Z,27.48
2018-03-31T03:27:26.101Z,30.85
2018-03-31T03:27:57.389Z,27.15
2018-03-31T03:28:28.673Z,28.80
2018-03-31T03:28:59.959Z,31.37
2018-03-31T03:29:31.233Z,30.17
2018-03-31T03:30:02.533Z,30.27
2018-03-31T03:30:33.813Z,30.37
2018-03-31T03:31:05.107Z,31.08
2018-03-31T03:31:36.381Z,33.67
2018-03-31T03:32:07.654Z,32.80
2018-03-31T03:32:38.931Z,30.95
2018-03-31T03:33:10.238Z,33.95
2018-03-31T03:33:41.559Z,31.37
2018-03-31T03:34:12.861Z,32.90
2018-03-31T03:34:44.173Z,32.92
2018-03-31T03:35:15.440Z,32.20
2018-03-31T03:35:46.715Z,31.08
2018-03-31T03:36:18.006Z,37.08
2018-03-31T03:36:49.292Z,31.85
2018-03-31T03:37:20.573Z,32.97
2018-03-31T03:37:51.868Z,34.25
2018-03-31T03:38:23.171Z,32.75
2018-03-31T03:38:54.448Z,32.72
2018-03-31T03:39:25.761Z,33.95
2018-03-31T03:39:57.012Z,32.28
2018-03-31T03:40:28.295Z,33.78
2018-03-31T03:40:59.590Z,28.77
2018-03-31T03:41:30.868Z,29.52
2018-03-31T03:42:02.137Z,31.05
2018-03-31T03:42:33.396Z,34.00
2018-03-31T03:43:04.660Z,32.50
2018-03-31T03:43:35.952Z,32.80
2018-03-31T03:44:07.268Z,34.22
2018-03-31T03:44:38.540Z,36.47
2018-03-31T03:45:09.829Z,32.60
2018-03-31T03:45:41.095Z,32.30
2018-03-31T03:46:12.388Z,33.60
2018-03-31T03:46:43.674Z,33.60
2018-03-31T03:47:14.950Z,30.95
2018-03-31T03:47:46.212Z,33.70
2018-03-31T03:48:17.499Z,31.45
2018-03-31T03:48:48.804Z,30.98
2018-03-31T03:49:20.092Z,31.90
2018-03-31T03:49:51.359Z,31.45
2018-03-31T03:50:22.639Z,33.40
2018-03-31T03:50:53.918Z,33.90
2018-03-31T03:51:25.184Z,31.90
2018-03-31T03:51:56.452Z,31.73
2018-03-31T03:52:27.740Z,34.47
2018-03-31T03:52:59.067Z,34.80
2018-03-31T03:53:30.330Z,32.13
2018-03-31T03:54:01.624Z,32.42
2018-03-31T03:54:32.909Z,31.62
2018-03-31T03:55:04.176Z,32.08
2018-03-31T03:55:35.461Z,31.62
2018-03-31T03:56:06.772Z,32.90
2018-03-31T03:56:38.044Z,33.17
2018-03-31T03:57:09.331Z,33.75
2018-03-31T03:57:40.611Z,32.13
2018-03-31T03:58:11.907Z,32.50
2018-03-31T03:58:43.212Z,31.90
2018-03-31T03:59:14.528Z,31.30
2018-03-31T03:59:45.800Z,28.12
2018-03-31T04:00:17.077Z,32.28
2018-03-31T04:00:48.344Z,31.08
2018-03-31T04:01:19.641Z,30.70
2018-03-31T04:01:50.924Z,32.83
2018-03-31T04:02:22.183Z,29.27
2018-03-31T04:02:53.464Z,27.98
2018-03-31T04:03:24.742Z,27.90
2018-03-31T04:03:56.039Z,29.92
2018-03-31T04:04:27.336Z,28.42
2018-03-31T04:04:58.614Z,30.17
2018-03-31T04:05:29.902Z,30.62
2018-03-31T04:06:01.185Z,29.45
2018-03-31T04:06:32.452Z,29.23
2018-03-31T04:07:03.744Z,28.55
2018-03-31T04:07:35.060Z,30.30
2018-03-31T04:08:06.357Z,30.83
2018-03-31T04:08:37.622Z,31.95
2018-03-31T04:09:08.897Z,28.08
2018-03-31T04:09:40.188Z,27.27
2018-03-31T04:10:11.481Z,31.35
2018-03-31T04:10:42.795Z,28.33
2018-03-31T04:11:14.075Z,28.10
2018-03-31T04:11:45.407Z,28.35
2018-03-31T04:12:16.683Z,28.00
2018-03-31T04:12:47.948Z,31.33
2018-03-31T04:13:19.238Z,32.25
2018-03-31T04:13:50.518Z,30.88
2018-03-31T04:14:21.823Z,28.08
2018-03-31T04:14:53.124Z,26.95
2018-03-31T04:15:24.416Z,29.83
2018-03-31T04:15:55.713Z,29.80
2018-03-31T04:16:27.008Z,26.92
2018-03-31T04:16:58.273Z,30.33
2018-03-31T04:17:29.572Z,28.65
2018-03-31T04:18:00.843Z,28.33
2018-03-31T04:18:32.096Z,28.95
2018-03-31T04:19:03.371Z,35.88
2018-03-31T04:19:34.652Z,30.25
2018-03-31T04:20:05.952Z,27.62
2018-03-31T04:20:37.224Z,28.35
2018-03-31T04:21:08.504Z,27.10
2018-03-31T04:21:39.812Z,26.73
2018-03-31T04:22:11.129Z,28.25
2018-03-31T04:22:42.400Z,25.40
2018-03-31T04:23:13.664Z,26.08
2018-03-31T04:23:44.942Z,30.85
2018-03-31T04:24:16.210Z,27.60
2018-03-31T04:24:47.490Z,29.10
2018-03-31T04:25:18.784Z,28.23
2018-03-31T04:25:50.048Z,28.70
2018-03-31T04:26:21.328Z,29.83
2018-03-31T04:26:52.603Z,29.10
2018-03-31T04:27:23.894Z,28.92
2018-03-31T04:27:55.159Z,27.02
2018-03-31T04:28:26.436Z,31.77
2018-03-31T04:28:57.755Z,25.95
2018-03-31T04:29:29.031Z,28.58
2018-03-31T04:30:00.316Z,25.35
2018-03-31T04:30:31.606Z,29.00
2018-03-31T04:31:02.990Z,28.48
2018-03-31T04:31:34.274Z,29.25
2018-03-31T04:32:05.542Z,29.95
2018-03-31T04:32:36.848Z,30.48
2018-03-31T04:33:08.128Z,27.37
2018-03-31T04:33:39.424Z,26.42
2018-03-31T04:34:10.712Z,27.10
2018-03-31T04:34:41.982Z,28.58
2018-03-31T04:35:13.261Z,28.95
2018-03-31T04:35:44.536Z,28.40
2018-03-31T04:36:15.820Z,30.27
2018-03-31T04:36:47.104Z,27.83
2018-03-31T04:37:18.392Z,28.23
2018-03-31T04:37:49.687Z,32.58
2018-03-31T04:38:20.956Z,27.00
2018-03-31T04:38:52.275Z,30.05
2018-03-31T04:39:23.552Z,26.95
2018-03-31T04:39:54.838Z,30.35
2018-03-31T04:40:26.118Z,32.10
2018-03-31T04:40:57.426Z,29.23
2018-03-31T04:41:28.692Z,28.87
2018-03-31T04:41:59.970Z,28.60
2018-03-31T04:42:31.238Z,27.65
2018-03-31T04:43:02.513Z,27.75
2018-03-31T04:43:33.797Z,26.20
2018-03-31T04:44:05.069Z,27.02
2018-03-31T04:44:36.332Z,27.52
2018-03-31T04:45:07.617Z,27.00
2018-03-31T04:45:38.898Z,31.77
2018-03-31T04:46:10.206Z,27.08
2018-03-31T04:46:41.502Z,31.15
2018-03-31T04:47:12.792Z,27.27
2018-03-31T04:47:44.067Z,27.37
2018-03-31T04:48:15.328Z,26.87
2018-03-31T04:48:46.638Z,26.42
2018-03-31T04:49:17.940Z,28.35
2018-03-31T04:49:49.208Z,24.85
2018-03-31T04:50:20.492Z,26.52
2018-03-31T04:50:51.793Z,30.30
2018-03-31T04:51:23.110Z,28.55
2018-03-31T04:51:54.407Z,25.67
2018-03-31T04:52:25.728Z,27.42
2018-03-31T04:52:57.025Z,27.25
2018-03-31T04:53:28.339Z,29.27
2018-03-31T04:53:59.633Z,28.38
2018-03-31T04:54:30.930Z,29.58
2018-03-31T04:55:02.284Z,27.08
2018-03-31T04:55:33.569Z,30.45
2018-03-31T04:56:04.824Z,28.15
2018-03-31T04:56:36.104Z,27.48
2018-03-31T04:57:07.378Z,27.92
2018-03-31T04:57:38.654Z,31.25
2018-03-31T04:58:10.000Z,30.35
2018-03-31T04:58:41.289Z,29.95
2018-03-31T04:59:12.624Z,28.80
2018-03-31T04:59:43.877Z,28.83
2018-03-31T05:00:15.180Z,28.48
2018-03-31T05:00:46.463Z,26.33
2018-03-31T05:01:17.743Z,28.35
2018-03-31T05:01:49.062Z,30.37
2018-03-31T05:02:20.356Z,28.95
2018-03-31T05:02:51.662Z,27.30
2018-03-31T05:03:22.962Z,29.33
2018-03-31T05:03:54.259Z,31.30
2018-03-31T05:04:25.557Z,31.33
2018-03-31T05:04:56.856Z,27.80
2018-03-31T05:05:28.170Z,28.17
2018-03-31T05:05:59.454Z,29.23
2018-03-31T05:06:30.779Z,31.00
2018-03-31T05:07:02.090Z,28.23
2018-03-31T05:07:33.359Z,31.67
2018-03-31T05:08:04.646Z,27.48
2018-03-31T05:08:35.976Z,30.65
2018-03-31T05:09:07.236Z,29.63
2018-03-31T05:09:38.557Z,30.98
2018-03-31T05:10:09.880Z,31.87
2018-03-31T05:10:41.176Z,30.40
2018-03-31T05:11:12.480Z,35.55
2018-03-31T05:11:43.780Z,37.70
2018-03-31T05:12:15.088Z,33.45
2018-03-31T05:12:46.377Z,38.40
2018-03-31T05:13:17.689Z,33.90
2018-03-31T05:13:48.992Z,32.45
2018-03-31T05:14:20.286Z,33.78
2018-03-31T05:14:51.588Z,32.05
2018-03-31T05:15:22.880Z,34.78
2018-03-31T05:15:54.202Z,34.92
2018-03-31T05:16:25.492Z,32.80
2018-03-31T05:16:56.796Z,34.70
2018-03-31T05:17:28.075Z,38.83
2018-03-31T05:17:59.402Z,38.08
2018-03-31T05:18:30.746Z,35.55
2018-03-31T05:19:02.043Z,34.58
2018-03-31T05:19:33.366Z,32.88
2018-03-31T05:20:04.647Z,31.87
2018-03-31T05:20:35.925Z,33.05
2018-03-31T05:21:07.216Z,35.10
2018-03-31T05:21:38.534Z,31.75
2018-03-31T05:22:09.814Z,32.65
2018-03-31T05:22:41.100Z,36.45
2018-03-31T05:23:12.391Z,33.67
2018-03-31T05:23:43.692Z,36.22
2018-03-31T05:24:14.964Z,41.60
2018-03-31T05:24:46.244Z,40.17
2018-03-31T05:25:17.564Z,40.63
2018-03-31T05:25:48.838Z,38.08
2018-03-31T05:26:20.097Z,34.80
2018-03-31T05:26:51.352Z,46.33
2018-03-31T05:27:22.658Z,46.08
2018-03-31T05:27:53.984Z,40.00
2018-03-31T05:28:25.298Z,42.97
2018-03-31T05:28:56.580Z,39.08
2018-03-31T05:29:27.845Z,39.70
2018-03-31T05:29:59.114Z,35.40
2018-03-31T05:30:30.398Z,35.78
2018-03-31T05:31:01.676Z,35.47
2018-03-31T05:31:32.990Z,33.33
2018-03-31T05:32:04.254Z,37.95
2018-03-31T05:32:35.558Z,36.17
2018-03-31T05:33:06.884Z,38.05
2018-03-31T05:33:38.187Z,38.60
2018-03-31T05:34:09.464Z,38.72
2018-03-31T05:34:40.734Z,36.95
2018-03-31T05:35:12.004Z,38.35
2018-03-31T05:35:43.292Z,36.55
2018-03-31T05:36:14.582Z,31.62
2018-03-31T05:36:45.872Z,32.08
2018-03-31T05:37:17.176Z,33.83
2018-03-31T05:37:48.446Z,35.47
2018-03-31T05:38:19.756Z,36.03
2018-03-31T05:38:51.066Z,35.03
2018-03-31T05:39:22.344Z,33.15
2018-03-31T05:39:53.624Z,39.22
2018-03-31T05:40:24.916Z,35.75
2018-03-31T05:40:56.202Z,37.35
2018-03-31T05:41:27.460Z,35.97
2018-03-31T05:41:58.748Z,39.25
2018-03-31T05:42:30.028Z,41.22
2018-03-31T05:43:01.322Z,37.40
2018-03-31T05:43:32.622Z,38.50
2018-03-31T05:44:03.914Z,38.35
2018-03-31T05:44:35.236Z,38.63
2018-03-31T05:45:06.536Z,38.45
2018-03-31T05:45:37.801Z,41.08
2018-03-31T05:46:09.077Z,36.42
2018-03-31T05:46:40.352Z,39.90
2018-03-31T05:47:11.650Z,43.72
2018-03-31T05:47:42.930Z,40.45
2018-03-31T05:48:14.211Z,42.47
2018-03-31T05:48:45.528Z,42.53
2018-03-31T05:49:16.812Z,39.08
2018-03-31T05:49:48.138Z,39.47
2018-03-31T05:50:19.438Z,42.42
2018-03-31T05:50:50.731Z,39.53
2018-03-31T05:51:22.014Z,41.70
2018-03-31T05:51:53.334Z,39.88
2018-03-31T05:52:24.592Z,45.80
2018-03-31T05:52:55.874Z,42.25
2018-03-31T05:53:27.154Z,46.47
2018-03-31T05:53:58.444Z,46.90
2018-03-31T05:54:29.756Z,45.78
2018-03-31T05:55:01.032Z,43.75
2018-03-31T05:55:32.311Z,45.97
2018-03-31T05:56:03.592Z,43.95
2018-03-31T05:56:34.868Z,39.28
2018-03-31T05:57:06.134Z,42.25
2018-03-31T05:57:37.405Z,46.65
2018-03-31T05:58:08.682Z,49.63
2018-03-31T05:58:39.962Z,43.53
2018-03-31T05:59:11.268Z,43.10
2018-03-31T05:59:42.595Z,49.10
2018-03-31T06:00:13.908Z,46.03
2018-03-31T06:00:45.188Z,44.67
2018-03-31T06:01:16.514Z,48.67
2018-03-31T06:01:47.804Z,46.25
2018-03-31T06:02:19.093Z,44.42
2018-03-31T06:02:50.367Z,46.40
2018-03-31T06:03:21.630Z,47.80
2018-03-31T06:03:52.936Z,47.17
2018-03-31T06:04:24.303Z,47.33
2018-03-31T06:04:55.548Z,48.10
2018-03-31T06:05:26.829Z,48.13
2018-03-31T06:05:58.179Z,48.50
2018-03-31T06:06:29.452Z,49.60
2018-03-31T06:07:00.721Z,44.53
2018-03-31T06:07:32.008Z,44.85
2018-03-31T06:08:03.284Z,50.85
2018-03-31T06:08:34.555Z,52.60
2018-03-31T06:09:05.953Z,50.28
2018-03-31T06:09:37.242Z,49.85
2018-03-31T06:10:08.539Z,47.13
2018-03-31T06:10:39.827Z,47.60
2018-03-31T06:11:11.110Z,48.25
2018-03-31T06:11:42.393Z,55.72
2018-03-31T06:12:13.686Z,49.30
2018-03-31T06:12:44.971Z,47.38
2018-03-31T06:13:16.283Z,50.53
2018-03-31T06:13:47.588Z,48.30
2018-03-31T06:14:18.876Z,58.22
2018-03-31T06:14:50.158Z,55.92
2018-03-31T06:15:21.452Z,56.05
2018-03-31T06:15:52.766Z,53.30
2018-03-31T06:16:24.059Z,58.03
2018-03-31T06:16:55.320Z,60.28
2018-03-31T06:17:26.603Z,62.20
2018-03-31T06:17:57.880Z,58.87
2018-03-31T06:18:29.150Z,56.03
2018-03-31T06:19:00.438Z,62.17
2018-03-31T06:19:31.720Z,55.80
2018-03-31T06:20:03.014Z,59.20
2018-03-31T06:20:34.297Z,63.78
2018-03-31T06:21:05.625Z,65.30
2018-03-31T06:21:36.901Z,64.03
2018-03-31T06:22:08.176Z,57.88
2018-03-31T06:22:39.445Z,57.88
2018-03-31T06:23:10.716Z,61.47
2018-03-31T06:23:41.986Z,57.22
2018-03-31T06:24:13.282Z,57.35
2018-03-31T06:24:44.565Z,61.20
2018-03-31T06:25:15.862Z,61.72
2018-03-31T06:25:47.145Z,53.80
2018-03-31T06:26:18.416Z,58.05
2018-03-31T06:26:49.695Z,62.83
2018-03-31T06:27:20.981Z,59.78
2018-03-31T06:27:52.272Z,67.60
2018-03-31T06:28:23.596Z,61.20
2018-03-31T06:28:54.881Z,61.95
2018-03-31T06:29:26.154Z,57.60
2018-03-31T06:29:57.412Z,61.42
2018-03-31T06:30:28.703Z,58.03
2018-03-31T06:30:59.998Z,67.28
2018-03-31T06:31:31.301Z,63.05
2018-03-31T06:32:02.584Z,66.97
2018-03-31T06:32:33.872Z,70.43
2018-03-31T06:33:05.145Z,68.45
2018-03-31T06:33:36.428Z,66.00
2018-03-31T06:34:07.713Z,64.78
2018-03-31T06:34:39.016Z,65.15
2018-03-31T06:35:10.308Z,71.62
2018-03-31T06:35:41.596Z,65.47
2018-03-31T06:36:12.872Z,76.82
2018-03-31T06:36:44.157Z,65.85
2018-03-31T06:37:15.448Z,73.47
2018-03-31T06:37:46.750Z,71.35
2018-03-31T06:38:18.023Z,69.30
2018-03-31T06:38:49.320Z,69.28
2018-03-31T06:39:20.576Z,77.07
2018-03-31T06:39:51.884Z,75.57
2018-03-31T06:40:23.169Z,77.68
2018-03-31T06:40:54.458Z,69.20
2018-03-31T06:41:25.748Z,74.28
2018-03-31T06:41:57.025Z,65.65
2018-03-31T06:42:28.314Z,76.55
2018-03-31T06:42:59.596Z,76.87
2018-03-31T06:43:30.859Z,71.25